sensor_id;sensor_type;location;lat;lon;timestamp;temperature;humidity
42095;DHT22;27753;55.724;37.612;2023-05-10T00:02:16;10.40;48.80
42095;DHT22;27753;55.724;37.612;2023-05-10T00:04:42;10.40;48.20
42095;DHT22;27753;55.724;37.612;2023-05-10T00:07:08;10.40;48.40
42095;DHT22;27753;55.724;37.612;2023-05-10T00:09:35;10.30;48.40
42095;DHT22;27753;55.724;37.612;2023-05-10T00:12:01;10.30;48.50
42095;DHT22;27753;55.724;37.612;2023-05-10T00:14:27;10.30;48.70
42095;DHT22;27753;55.724;37.612;2023-05-10T00:16:53;10.30;49.00
42095;DHT22;27753;55.724;37.612;2023-05-10T00:19:19;10.30;49.10
42095;DHT22;27753;55.724;37.612;2023-05-10T00:21:44;10.30;49.20
42095;DHT22;27753;55.724;37.612;2023-05-10T00:24:10;10.30;49.50
42095;DHT22;27753;55.724;37.612;2023-05-10T00:26:36;10.30;49.50
42095;DHT22;27753;55.724;37.612;2023-05-10T00:29:02;10.20;48.90
42095;DHT22;27753;55.724;37.612;2023-05-10T00:31:28;10.30;48.70
42095;DHT22;27753;55.724;37.612;2023-05-10T00:33:54;10.20;48.80
42095;DHT22;27753;55.724;37.612;2023-05-10T00:36:20;10.20;48.70
42095;DHT22;27753;55.724;37.612;2023-05-10T00:38:46;10.20;48.70
42095;DHT22;27753;55.724;37.612;2023-05-10T00:41:12;10.20;48.60
42095;DHT22;27753;55.724;37.612;2023-05-10T00:43:38;10.20;48.50
42095;DHT22;27753;55.724;37.612;2023-05-10T00:46:04;10.20;48.50
42095;DHT22;27753;55.724;37.612;2023-05-10T00:48:31;10.20;49.20
42095;DHT22;27753;55.724;37.612;2023-05-10T00:50:57;10.20;49.50
42095;DHT22;27753;55.724;37.612;2023-05-10T00:53:24;10.20;49.30
42095;DHT22;27753;55.724;37.612;2023-05-10T00:55:50;10.20;49.20
42095;DHT22;27753;55.724;37.612;2023-05-10T00:58:16;10.20;48.80
42095;DHT22;27753;55.724;37.612;2023-05-10T01:00:43;10.20;48.20
42095;DHT22;27753;55.724;37.612;2023-05-10T01:03:11;10.20;48.40
42095;DHT22;27753;55.724;37.612;2023-05-10T01:05:37;10.20;48.20
42095;DHT22;27753;55.724;37.612;2023-05-10T01:08:03;10.20;48.40
42095;DHT22;27753;55.724;37.612;2023-05-10T01:10:30;10.20;48.50
42095;DHT22;27753;55.724;37.612;2023-05-10T01:12:57;10.20;49.20
42095;DHT22;27753;55.724;37.612;2023-05-10T01:15:24;10.20;48.50
42095;DHT22;27753;55.724;37.612;2023-05-10T01:17:51;10.20;48.30
42095;DHT22;27753;55.724;37.612;2023-05-10T01:20:18;10.20;48.70
42095;DHT22;27753;55.724;37.612;2023-05-10T01:23:10;10.10;48.80
42095;DHT22;27753;55.724;37.612;2023-05-10T01:28:45;10.20;48.60
42095;DHT22;27753;55.724;37.612;2023-05-10T01:37:31;10.10;48.30
42095;DHT22;27753;55.724;37.612;2023-05-10T01:40:16;10.10;48.20
42095;DHT22;27753;55.724;37.612;2023-05-10T01:42:51;10.10;48.20
42095;DHT22;27753;55.724;37.612;2023-05-10T01:45:30;10.10;48.10
42095;DHT22;27753;55.724;37.612;2023-05-10T01:48:10;10.10;48.00
42095;DHT22;27753;55.724;37.612;2023-05-10T01:50:38;10.10;48.00
42095;DHT22;27753;55.724;37.612;2023-05-10T01:53:07;10.10;48.10
42095;DHT22;27753;55.724;37.612;2023-05-10T01:55:39;10.10;48.10
42095;DHT22;27753;55.724;37.612;2023-05-10T01:58:30;10.10;48.20
42095;DHT22;27753;55.724;37.612;2023-05-10T02:01:00;10.10;48.30
42095;DHT22;27753;55.724;37.612;2023-05-10T02:03:28;10.10;48.50
42095;DHT22;27753;55.724;37.612;2023-05-10T02:05:56;10.10;48.50
42095;DHT22;27753;55.724;37.612;2023-05-10T02:08:23;10.10;48.70
42095;DHT22;27753;55.724;37.612;2023-05-10T02:10:52;10.10;48.70
42095;DHT22;27753;55.724;37.612;2023-05-10T02:13:19;10.10;48.70
42095;DHT22;27753;55.724;37.612;2023-05-10T02:15:50;10.20;49.00
42095;DHT22;27753;55.724;37.612;2023-05-10T02:18:17;10.10;49.10
42095;DHT22;27753;55.724;37.612;2023-05-10T02:20:46;10.10;48.90
42095;DHT22;27753;55.724;37.612;2023-05-10T02:23:13;10.10;48.80
42095;DHT22;27753;55.724;37.612;2023-05-10T02:25:40;10.20;48.80
42095;DHT22;27753;55.724;37.612;2023-05-10T02:28:07;10.10;48.40
42095;DHT22;27753;55.724;37.612;2023-05-10T02:30:34;10.20;48.30
42095;DHT22;27753;55.724;37.612;2023-05-10T02:33:02;10.20;48.30
42095;DHT22;27753;55.724;37.612;2023-05-10T02:35:29;10.20;48.20
42095;DHT22;27753;55.724;37.612;2023-05-10T02:37:58;10.20;48.20
42095;DHT22;27753;55.724;37.612;2023-05-10T02:40:26;10.20;48.30
42095;DHT22;27753;55.724;37.612;2023-05-10T02:42:55;10.30;48.20
42095;DHT22;27753;55.724;37.612;2023-05-10T02:45:24;10.20;48.20
42095;DHT22;27753;55.724;37.612;2023-05-10T02:47:52;10.30;48.20
42095;DHT22;27753;55.724;37.612;2023-05-10T02:50:18;10.30;48.40
42095;DHT22;27753;55.724;37.612;2023-05-10T02:52:49;10.30;48.30
42095;DHT22;27753;55.724;37.612;2023-05-10T02:55:19;10.30;48.50
42095;DHT22;27753;55.724;37.612;2023-05-10T02:57:51;10.30;48.40
42095;DHT22;27753;55.724;37.612;2023-05-10T03:00:17;10.30;48.60
42095;DHT22;27753;55.724;37.612;2023-05-10T03:02:43;10.40;48.40
42095;DHT22;27753;55.724;37.612;2023-05-10T03:05:09;10.40;48.30
42095;DHT22;27753;55.724;37.612;2023-05-10T03:07:35;10.40;48.30
42095;DHT22;27753;55.724;37.612;2023-05-10T03:10:02;10.40;48.30
42095;DHT22;27753;55.724;37.612;2023-05-10T03:12:52;10.40;48.30
42095;DHT22;27753;55.724;37.612;2023-05-10T03:15:56;10.50;48.10
42095;DHT22;27753;55.724;37.612;2023-05-10T03:18:36;10.50;48.20
42095;DHT22;27753;55.724;37.612;2023-05-10T03:21:03;10.50;48.10
42095;DHT22;27753;55.724;37.612;2023-05-10T03:23:44;10.50;48.10
42095;DHT22;27753;55.724;37.612;2023-05-10T03:26:34;10.60;48.00
42095;DHT22;27753;55.724;37.612;2023-05-10T03:29:02;10.50;48.20
42095;DHT22;27753;55.724;37.612;2023-05-10T03:31:28;10.60;48.10
42095;DHT22;27753;55.724;37.612;2023-05-10T03:33:54;10.60;48.30
42095;DHT22;27753;55.724;37.612;2023-05-10T03:36:20;10.70;48.30
42095;DHT22;27753;55.724;37.612;2023-05-10T03:38:46;10.70;48.20
42095;DHT22;27753;55.724;37.612;2023-05-10T03:41:12;10.70;48.20
42095;DHT22;27753;55.724;37.612;2023-05-10T03:43:38;10.80;48.10
42095;DHT22;27753;55.724;37.612;2023-05-10T03:46:04;10.80;47.80
42095;DHT22;27753;55.724;37.612;2023-05-10T03:48:32;10.80;47.90
42095;DHT22;27753;55.724;37.612;2023-05-10T03:50:58;10.90;47.70
42095;DHT22;27753;55.724;37.612;2023-05-10T03:53:24;11.00;47.80
42095;DHT22;27753;55.724;37.612;2023-05-10T03:55:50;11.00;47.80
42095;DHT22;27753;55.724;37.612;2023-05-10T03:58:16;11.00;47.60
42095;DHT22;27753;55.724;37.612;2023-05-10T04:00:41;11.10;47.70
42095;DHT22;27753;55.724;37.612;2023-05-10T04:03:11;11.20;47.70
42095;DHT22;27753;55.724;37.612;2023-05-10T04:05:36;11.20;47.60
42095;DHT22;27753;55.724;37.612;2023-05-10T04:08:03;11.30;47.40
42095;DHT22;27753;55.724;37.612;2023-05-10T04:10:29;11.30;47.50
42095;DHT22;27753;55.724;37.612;2023-05-10T04:12:55;11.30;47.40
42095;DHT22;27753;55.724;37.612;2023-05-10T04:15:21;11.40;47.60
42095;DHT22;27753;55.724;37.612;2023-05-10T04:17:47;11.40;47.40
42095;DHT22;27753;55.724;37.612;2023-05-10T04:20:13;11.40;47.50
42095;DHT22;27753;55.724;37.612;2023-05-10T04:22:39;11.50;47.10
42095;DHT22;27753;55.724;37.612;2023-05-10T04:25:05;11.60;47.00
42095;DHT22;27753;55.724;37.612;2023-05-10T04:27:31;11.70;46.70
42095;DHT22;27753;55.724;37.612;2023-05-10T04:29:58;11.80;46.60
42095;DHT22;27753;55.724;37.612;2023-05-10T04:32:24;11.90;46.70
42095;DHT22;27753;55.724;37.612;2023-05-10T04:34:50;12.00;46.70
42095;DHT22;27753;55.724;37.612;2023-05-10T04:37:17;12.10;46.50
42095;DHT22;27753;55.724;37.612;2023-05-10T04:39:43;12.20;46.10
42095;DHT22;27753;55.724;37.612;2023-05-10T04:42:09;12.20;45.70
42095;DHT22;27753;55.724;37.612;2023-05-10T04:44:35;12.30;45.80
42095;DHT22;27753;55.724;37.612;2023-05-10T04:47:01;12.30;45.70
42095;DHT22;27753;55.724;37.612;2023-05-10T04:49:29;12.40;45.90
42095;DHT22;27753;55.724;37.612;2023-05-10T04:51:55;12.50;45.40
42095;DHT22;27753;55.724;37.612;2023-05-10T04:54:21;12.60;45.50
42095;DHT22;27753;55.724;37.612;2023-05-10T04:56:48;12.70;45.50
42095;DHT22;27753;55.724;37.612;2023-05-10T04:59:14;12.90;45.40
42095;DHT22;27753;55.724;37.612;2023-05-10T05:01:40;13.10;44.80
42095;DHT22;27753;55.724;37.612;2023-05-10T05:04:06;13.30;44.80
42095;DHT22;27753;55.724;37.612;2023-05-10T05:06:32;13.40;44.70
42095;DHT22;27753;55.724;37.612;2023-05-10T05:08:58;13.30;44.20
42095;DHT22;27753;55.724;37.612;2023-05-10T05:11:24;13.40;43.90
42095;DHT22;27753;55.724;37.612;2023-05-10T05:13:51;13.50;43.70
42095;DHT22;27753;55.724;37.612;2023-05-10T05:16:17;13.60;43.30
42095;DHT22;27753;55.724;37.612;2023-05-10T05:18:43;13.60;43.30
42095;DHT22;27753;55.724;37.612;2023-05-10T05:21:16;13.90;43.30
42095;DHT22;27753;55.724;37.612;2023-05-10T05:23:42;14.10;42.50
42095;DHT22;27753;55.724;37.612;2023-05-10T05:26:08;14.40;42.40
42095;DHT22;27753;55.724;37.612;2023-05-10T05:28:34;14.80;41.80
42095;DHT22;27753;55.724;37.612;2023-05-10T05:31:03;15.30;41.40
42095;DHT22;27753;55.724;37.612;2023-05-10T05:33:29;15.70;40.70
42095;DHT22;27753;55.724;37.612;2023-05-10T05:35:55;15.90;39.70
42095;DHT22;27753;55.724;37.612;2023-05-10T05:38:21;16.10;39.40
42095;DHT22;27753;55.724;37.612;2023-05-10T05:40:47;16.10;39.30
42095;DHT22;27753;55.724;37.612;2023-05-10T05:43:13;16.10;39.10
42095;DHT22;27753;55.724;37.612;2023-05-10T05:45:39;16.10;39.40
42095;DHT22;27753;55.724;37.612;2023-05-10T05:48:05;16.20;39.10
42095;DHT22;27753;55.724;37.612;2023-05-10T05:50:30;16.20;39.30
42095;DHT22;27753;55.724;37.612;2023-05-10T05:52:56;16.30;38.90
42095;DHT22;27753;55.724;37.612;2023-05-10T05:55:23;16.50;39.00
42095;DHT22;27753;55.724;37.612;2023-05-10T05:57:49;16.40;38.70
42095;DHT22;27753;55.724;37.612;2023-05-10T06:00:15;16.50;38.90
42095;DHT22;27753;55.724;37.612;2023-05-10T06:02:41;16.60;38.60
42095;DHT22;27753;55.724;37.612;2023-05-10T06:05:07;16.70;39.00
42095;DHT22;27753;55.724;37.612;2023-05-10T06:07:48;16.70;38.00
42095;DHT22;27753;55.724;37.612;2023-05-10T06:10:14;16.70;37.30
42095;DHT22;27753;55.724;37.612;2023-05-10T06:12:40;16.60;37.80
42095;DHT22;27753;55.724;37.612;2023-05-10T06:15:06;16.60;37.60
42095;DHT22;27753;55.724;37.612;2023-05-10T06:17:32;16.70;37.90
42095;DHT22;27753;55.724;37.612;2023-05-10T06:19:58;16.90;38.00
42095;DHT22;27753;55.724;37.612;2023-05-10T06:22:24;16.90;36.70
42095;DHT22;27753;55.724;37.612;2023-05-10T06:24:49;16.80;36.40
42095;DHT22;27753;55.724;37.612;2023-05-10T06:27:15;16.80;37.20
42095;DHT22;27753;55.724;37.612;2023-05-10T06:29:41;16.80;36.60
42095;DHT22;27753;55.724;37.612;2023-05-10T06:32:07;16.80;36.30
42095;DHT22;27753;55.724;37.612;2023-05-10T06:34:33;16.90;36.50
42095;DHT22;27753;55.724;37.612;2023-05-10T06:36:59;17.00;36.50
42095;DHT22;27753;55.724;37.612;2023-05-10T06:39:24;17.10;36.40
42095;DHT22;27753;55.724;37.612;2023-05-10T06:41:50;17.10;35.90
42095;DHT22;27753;55.724;37.612;2023-05-10T06:44:16;17.10;35.80
42095;DHT22;27753;55.724;37.612;2023-05-10T06:46:42;17.20;35.50
42095;DHT22;27753;55.724;37.612;2023-05-10T06:49:08;17.20;35.20
42095;DHT22;27753;55.724;37.612;2023-05-10T06:51:34;17.20;35.10
42095;DHT22;27753;55.724;37.612;2023-05-10T06:53:59;17.20;35.10
42095;DHT22;27753;55.724;37.612;2023-05-10T06:56:25;17.50;35.00
42095;DHT22;27753;55.724;37.612;2023-05-10T06:58:51;17.70;34.90
42095;DHT22;27753;55.724;37.612;2023-05-10T07:01:17;17.90;34.50
42095;DHT22;27753;55.724;37.612;2023-05-10T07:03:43;18.20;34.50
42095;DHT22;27753;55.724;37.612;2023-05-10T07:06:09;18.60;33.80
42095;DHT22;27753;55.724;37.612;2023-05-10T07:08:34;18.90;33.20
42095;DHT22;27753;55.724;37.612;2023-05-10T07:11:05;19.10;32.80
42095;DHT22;27753;55.724;37.612;2023-05-10T07:13:32;19.30;32.80
42095;DHT22;27753;55.724;37.612;2023-05-10T07:15:59;19.80;32.70
42095;DHT22;27753;55.724;37.612;2023-05-10T07:18:26;20.10;32.00
42095;DHT22;27753;55.724;37.612;2023-05-10T07:20:52;20.20;31.60
42095;DHT22;27753;55.724;37.612;2023-05-10T07:23:18;20.30;31.80
42095;DHT22;27753;55.724;37.612;2023-05-10T07:25:46;20.40;31.50
42095;DHT22;27753;55.724;37.612;2023-05-10T07:28:12;20.60;32.00
42095;DHT22;27753;55.724;37.612;2023-05-10T07:30:38;21.00;32.20
42095;DHT22;27753;55.724;37.612;2023-05-10T07:33:03;21.10;31.20
42095;DHT22;27753;55.724;37.612;2023-05-10T07:35:29;21.50;30.20
42095;DHT22;27753;55.724;37.612;2023-05-10T07:37:55;21.70;29.90
42095;DHT22;27753;55.724;37.612;2023-05-10T07:40:21;22.10;29.80
42095;DHT22;27753;55.724;37.612;2023-05-10T07:42:47;22.10;30.20
42095;DHT22;27753;55.724;37.612;2023-05-10T07:45:13;22.30;29.50
42095;DHT22;27753;55.724;37.612;2023-05-10T07:47:39;22.60;29.40
42095;DHT22;27753;55.724;37.612;2023-05-10T07:50:05;23.20;28.60
42095;DHT22;27753;55.724;37.612;2023-05-10T07:52:31;23.80;28.40
42095;DHT22;27753;55.724;37.612;2023-05-10T07:54:57;24.30;28.00
42095;DHT22;27753;55.724;37.612;2023-05-10T07:57:23;24.90;27.90
42095;DHT22;27753;55.724;37.612;2023-05-10T07:59:49;25.40;27.00
42095;DHT22;27753;55.724;37.612;2023-05-10T08:02:15;25.60;27.30
42095;DHT22;27753;55.724;37.612;2023-05-10T08:04:41;26.30;27.20
42095;DHT22;27753;55.724;37.612;2023-05-10T08:07:06;26.90;26.30
42095;DHT22;27753;55.724;37.612;2023-05-10T08:09:33;27.20;26.30
42095;DHT22;27753;55.724;37.612;2023-05-10T08:11:58;27.80;26.30
42095;DHT22;27753;55.724;37.612;2023-05-10T08:14:26;28.30;26.40
42095;DHT22;27753;55.724;37.612;2023-05-10T08:16:52;28.60;26.20
42095;DHT22;27753;55.724;37.612;2023-05-10T08:19:18;29.50;25.90
42095;DHT22;27753;55.724;37.612;2023-05-10T08:21:45;30.20;25.40
42095;DHT22;27753;55.724;37.612;2023-05-10T08:24:11;30.40;24.80
42095;DHT22;27753;55.724;37.612;2023-05-10T08:26:37;30.40;24.40
42095;DHT22;27753;55.724;37.612;2023-05-10T08:29:03;30.50;24.60
42095;DHT22;27753;55.724;37.612;2023-05-10T08:31:29;30.70;24.40
42095;DHT22;27753;55.724;37.612;2023-05-10T08:33:54;31.50;24.60
42095;DHT22;27753;55.724;37.612;2023-05-10T08:36:20;33.20;24.30
42095;DHT22;27753;55.724;37.612;2023-05-10T08:41:23;34.40;23.80
42095;DHT22;27753;55.724;37.612;2023-05-10T08:43:55;36.50;23.20
42095;DHT22;27753;55.724;37.612;2023-05-10T08:46:22;35.80;22.80
42095;DHT22;27753;55.724;37.612;2023-05-10T08:48:49;35.10;22.90
42095;DHT22;27753;55.724;37.612;2023-05-10T08:51:22;34.70;23.10
42095;DHT22;27753;55.724;37.612;2023-05-10T08:53:52;34.80;23.00
42095;DHT22;27753;55.724;37.612;2023-05-10T08:56:18;34.20;23.00
42095;DHT22;27753;55.724;37.612;2023-05-10T08:58:45;33.20;23.00
42095;DHT22;27753;55.724;37.612;2023-05-10T09:01:12;33.10;23.20
42095;DHT22;27753;55.724;37.612;2023-05-10T09:03:39;33.80;24.10
42095;DHT22;27753;55.724;37.612;2023-05-10T09:06:05;34.80;23.20
42095;DHT22;27753;55.724;37.612;2023-05-10T09:08:32;35.80;23.50
42095;DHT22;27753;55.724;37.612;2023-05-10T09:11:00;36.40;22.80
42095;DHT22;27753;55.724;37.612;2023-05-10T09:13:27;36.30;22.40
42095;DHT22;27753;55.724;37.612;2023-05-10T09:15:54;34.40;22.30
42095;DHT22;27753;55.724;37.612;2023-05-10T09:18:20;32.90;22.60
42095;DHT22;27753;55.724;37.612;2023-05-10T09:20:48;31.00;23.00
42095;DHT22;27753;55.724;37.612;2023-05-10T09:23:14;30.70;23.70
42095;DHT22;27753;55.724;37.612;2023-05-10T09:25:43;32.20;23.50
42095;DHT22;27753;55.724;37.612;2023-05-10T09:28:09;34.00;23.30
42095;DHT22;27753;55.724;37.612;2023-05-10T09:30:35;34.20;22.60
42095;DHT22;27753;55.724;37.612;2023-05-10T09:33:01;32.30;22.80
42095;DHT22;27753;55.724;37.612;2023-05-10T09:35:30;31.10;23.30
42095;DHT22;27753;55.724;37.612;2023-05-10T09:38:00;29.80;23.80
42095;DHT22;27753;55.724;37.612;2023-05-10T09:40:27;30.10;23.80
42095;DHT22;27753;55.724;37.612;2023-05-10T09:45:28;32.10;23.50
42095;DHT22;27753;55.724;37.612;2023-05-10T09:47:55;33.50;23.20
42095;DHT22;27753;55.724;37.612;2023-05-10T09:50:22;33.80;23.00
42095;DHT22;27753;55.724;37.612;2023-05-10T09:52:53;34.90;22.80
42095;DHT22;27753;55.724;37.612;2023-05-10T09:55:21;34.20;22.80
42095;DHT22;27753;55.724;37.612;2023-05-10T09:57:48;34.00;23.00
42095;DHT22;27753;55.724;37.612;2023-05-10T10:00:19;32.30;22.70
42095;DHT22;27753;55.724;37.612;2023-05-10T10:02:46;29.80;23.50
42095;DHT22;27753;55.724;37.612;2023-05-10T10:05:13;28.10;24.30
42095;DHT22;27753;55.724;37.612;2023-05-10T10:07:39;26.70;24.70
42095;DHT22;27753;55.724;37.612;2023-05-10T10:10:05;25.50;25.40
42095;DHT22;27753;55.724;37.612;2023-05-10T10:15:03;24.30;26.00
42095;DHT22;27753;55.724;37.612;2023-05-10T10:17:30;22.80;27.20
42095;DHT22;27753;55.724;37.612;2023-05-10T10:19:57;22.40;27.70
42095;DHT22;27753;55.724;37.612;2023-05-10T10:22:24;22.90;27.90
42095;DHT22;27753;55.724;37.612;2023-05-10T10:24:50;23.70;27.40
42095;DHT22;27753;55.724;37.612;2023-05-10T10:27:21;24.00;27.30
42095;DHT22;27753;55.724;37.612;2023-05-10T10:35:15;23.40;27.50
42095;DHT22;27753;55.724;37.612;2023-05-10T10:37:44;23.20;27.40
42095;DHT22;27753;55.724;37.612;2023-05-10T10:40:26;22.70;27.70
42095;DHT22;27753;55.724;37.612;2023-05-10T10:42:53;22.50;28.00
42095;DHT22;27753;55.724;37.612;2023-05-10T10:45:20;22.10;28.10
42095;DHT22;27753;55.724;37.612;2023-05-10T10:47:46;21.80;28.50
42095;DHT22;27753;55.724;37.612;2023-05-10T10:50:12;21.80;28.70
42095;DHT22;27753;55.724;37.612;2023-05-10T10:52:42;21.60;28.60
42095;DHT22;27753;55.724;37.612;2023-05-10T10:55:19;21.40;28.90
42095;DHT22;27753;55.724;37.612;2023-05-10T10:57:49;21.10;29.00
42095;DHT22;27753;55.724;37.612;2023-05-10T11:00:24;20.60;29.40
42095;DHT22;27753;55.724;37.612;2023-05-10T11:03:03;20.20;29.90
42095;DHT22;27753;55.724;37.612;2023-05-10T11:08:28;19.80;30.30
42095;DHT22;27753;55.724;37.612;2023-05-10T11:13:42;19.70;30.50
42095;DHT22;27753;55.724;37.612;2023-05-10T11:16:16;19.70;30.30
42095;DHT22;27753;55.724;37.612;2023-05-10T11:21:25;19.90;30.30
42095;DHT22;27753;55.724;37.612;2023-05-10T11:23:56;19.80;30.30
42095;DHT22;27753;55.724;37.612;2023-05-10T11:26:29;19.70;30.60
42095;DHT22;27753;55.724;37.612;2023-05-10T11:28:55;19.70;30.40
42095;DHT22;27753;55.724;37.612;2023-05-10T11:31:22;19.60;30.30
42095;DHT22;27753;55.724;37.612;2023-05-10T11:33:51;19.80;30.50
42095;DHT22;27753;55.724;37.612;2023-05-10T11:36:21;20.00;30.50
42095;DHT22;27753;55.724;37.612;2023-05-10T11:38:48;20.00;31.00
42095;DHT22;27753;55.724;37.612;2023-05-10T11:41:16;20.10;30.40
42095;DHT22;27753;55.724;37.612;2023-05-10T11:43:43;19.90;30.40
42095;DHT22;27753;55.724;37.612;2023-05-10T11:46:12;19.60;30.90
42095;DHT22;27753;55.724;37.612;2023-05-10T11:48:39;19.30;31.00
42095;DHT22;27753;55.724;37.612;2023-05-10T11:51:07;19.20;31.20
42095;DHT22;27753;55.724;37.612;2023-05-10T11:53:33;19.20;31.20
42095;DHT22;27753;55.724;37.612;2023-05-10T11:56:06;19.10;31.20
42095;DHT22;27753;55.724;37.612;2023-05-10T11:58:33;19.10;31.50
42095;DHT22;27753;55.724;37.612;2023-05-10T12:00:59;19.00;31.60
42095;DHT22;27753;55.724;37.612;2023-05-10T12:03:26;19.10;31.80
42095;DHT22;27753;55.724;37.612;2023-05-10T12:05:53;19.20;32.00
42095;DHT22;27753;55.724;37.612;2023-05-10T12:08:25;19.20;31.80
42095;DHT22;27753;55.724;37.612;2023-05-10T12:10:52;19.30;32.10
42095;DHT22;27753;55.724;37.612;2023-05-10T12:13:19;19.30;31.60
42095;DHT22;27753;55.724;37.612;2023-05-10T12:15:46;19.30;31.90
42095;DHT22;27753;55.724;37.612;2023-05-10T12:18:13;19.30;31.70
42095;DHT22;27753;55.724;37.612;2023-05-10T12:20:40;19.20;31.60
42095;DHT22;27753;55.724;37.612;2023-05-10T12:23:09;19.20;31.70
42095;DHT22;27753;55.724;37.612;2023-05-10T12:25:36;19.10;31.90
42095;DHT22;27753;55.724;37.612;2023-05-10T12:28:04;19.30;32.30
42095;DHT22;27753;55.724;37.612;2023-05-10T12:30:32;19.30;32.00
42095;DHT22;27753;55.724;37.612;2023-05-10T12:33:12;19.30;32.00
42095;DHT22;27753;55.724;37.612;2023-05-10T12:35:47;19.50;32.20
42095;DHT22;27753;55.724;37.612;2023-05-10T12:38:29;19.50;32.20
42095;DHT22;27753;55.724;37.612;2023-05-10T12:41:00;19.50;31.90
42095;DHT22;27753;55.724;37.612;2023-05-10T12:43:26;19.50;32.00
42095;DHT22;27753;55.724;37.612;2023-05-10T12:45:53;19.40;32.00
42095;DHT22;27753;55.724;37.612;2023-05-10T12:48:19;19.30;32.50
42095;DHT22;27753;55.724;37.612;2023-05-10T12:50:45;19.20;32.10
42095;DHT22;27753;55.724;37.612;2023-05-10T12:53:12;18.90;32.80
42095;DHT22;27753;55.724;37.612;2023-05-10T12:55:39;18.80;33.10
42095;DHT22;27753;55.724;37.612;2023-05-10T12:58:05;18.70;33.20
42095;DHT22;27753;55.724;37.612;2023-05-10T13:00:31;18.60;33.50
42095;DHT22;27753;55.724;37.612;2023-05-10T13:02:57;18.30;33.90
42095;DHT22;27753;55.724;37.612;2023-05-10T13:05:22;18.00;34.30
42095;DHT22;27753;55.724;37.612;2023-05-10T13:07:48;17.90;34.60
42095;DHT22;27753;55.724;37.612;2023-05-10T13:10:14;17.90;34.50
42095;DHT22;27753;55.724;37.612;2023-05-10T13:12:40;17.90;34.50
42095;DHT22;27753;55.724;37.612;2023-05-10T13:15:07;17.90;34.50
42095;DHT22;27753;55.724;37.612;2023-05-10T13:17:33;18.00;35.00
42095;DHT22;27753;55.724;37.612;2023-05-10T13:19:59;18.00;34.80
42095;DHT22;27753;55.724;37.612;2023-05-10T13:22:25;18.10;34.80
42095;DHT22;27753;55.724;37.612;2023-05-10T13:24:51;18.10;35.00
42095;DHT22;27753;55.724;37.612;2023-05-10T13:27:16;18.10;34.90
42095;DHT22;27753;55.724;37.612;2023-05-10T13:29:42;18.10;34.60
42095;DHT22;27753;55.724;37.612;2023-05-10T13:32:08;18.20;34.80
42095;DHT22;27753;55.724;37.612;2023-05-10T13:34:34;18.20;34.80
42095;DHT22;27753;55.724;37.612;2023-05-10T13:37:01;18.20;34.80
42095;DHT22;27753;55.724;37.612;2023-05-10T13:39:27;18.20;34.70
42095;DHT22;27753;55.724;37.612;2023-05-10T13:41:55;18.10;34.80
42095;DHT22;27753;55.724;37.612;2023-05-10T13:44:21;18.00;34.60
42095;DHT22;27753;55.724;37.612;2023-05-10T13:46:47;18.00;35.30
42095;DHT22;27753;55.724;37.612;2023-05-10T13:49:13;18.10;35.10
42095;DHT22;27753;55.724;37.612;2023-05-10T13:51:39;18.10;34.60
42095;DHT22;27753;55.724;37.612;2023-05-10T13:54:05;18.10;34.60
42095;DHT22;27753;55.724;37.612;2023-05-10T13:56:31;18.10;34.60
42095;DHT22;27753;55.724;37.612;2023-05-10T13:58:57;18.20;34.70
42095;DHT22;27753;55.724;37.612;2023-05-10T14:01:24;18.20;35.00
42095;DHT22;27753;55.724;37.612;2023-05-10T14:03:50;18.20;34.90
42095;DHT22;27753;55.724;37.612;2023-05-10T14:06:16;18.20;34.90
42095;DHT22;27753;55.724;37.612;2023-05-10T14:08:42;18.30;34.70
42095;DHT22;27753;55.724;37.612;2023-05-10T14:11:07;18.20;34.80
42095;DHT22;27753;55.724;37.612;2023-05-10T14:13:33;18.20;34.70
42095;DHT22;27753;55.724;37.612;2023-05-10T14:15:59;18.10;34.70
42095;DHT22;27753;55.724;37.612;2023-05-10T14:18:26;18.00;34.80
42095;DHT22;27753;55.724;37.612;2023-05-10T14:20:53;17.90;34.80
42095;DHT22;27753;55.724;37.612;2023-05-10T14:23:19;17.90;35.10
42095;DHT22;27753;55.724;37.612;2023-05-10T14:25:51;17.80;35.40
42095;DHT22;27753;55.724;37.612;2023-05-10T14:28:17;17.90;35.20
42095;DHT22;27753;55.724;37.612;2023-05-10T14:30:44;17.90;35.00
42095;DHT22;27753;55.724;37.612;2023-05-10T14:33:10;17.80;34.90
42095;DHT22;27753;55.724;37.612;2023-05-10T14:35:36;17.80;34.90
42095;DHT22;27753;55.724;37.612;2023-05-10T14:38:03;17.70;35.00
42095;DHT22;27753;55.724;37.612;2023-05-10T14:40:29;17.70;35.20
42095;DHT22;27753;55.724;37.612;2023-05-10T14:42:55;17.70;35.30
42095;DHT22;27753;55.724;37.612;2023-05-10T14:45:22;17.70;35.60
42095;DHT22;27753;55.724;37.612;2023-05-10T14:57:37;17.60;35.50
42095;DHT22;27753;55.724;37.612;2023-05-10T16:20:43;17.50;36.00
42095;DHT22;27753;55.724;37.612;2023-05-10T16:23:09;16.40;38.00
42095;DHT22;27753;55.724;37.612;2023-05-10T16:25:35;16.30;38.00
42095;DHT22;27753;55.724;37.612;2023-05-10T16:28:02;16.20;38.20
42095;DHT22;27753;55.724;37.612;2023-05-10T16:30:27;16.20;38.20
42095;DHT22;27753;55.724;37.612;2023-05-10T16:33:04;16.10;38.40
42095;DHT22;27753;55.724;37.612;2023-05-10T16:35:30;16.20;38.40
42095;DHT22;27753;55.724;37.612;2023-05-10T16:37:58;16.10;38.60
42095;DHT22;27753;55.724;37.612;2023-05-10T16:40:27;16.10;38.90
42095;DHT22;27753;55.724;37.612;2023-05-10T16:42:53;16.10;39.20
42095;DHT22;27753;55.724;37.612;2023-05-10T16:45:19;16.10;39.10
42095;DHT22;27753;55.724;37.612;2023-05-10T16:47:45;16.00;38.80
42095;DHT22;27753;55.724;37.612;2023-05-10T16:50:11;16.00;38.80
42095;DHT22;27753;55.724;37.612;2023-05-10T16:52:37;16.00;39.00
42095;DHT22;27753;55.724;37.612;2023-05-10T16:55:03;16.00;39.10
42095;DHT22;27753;55.724;37.612;2023-05-10T16:57:29;15.90;39.20
42095;DHT22;27753;55.724;37.612;2023-05-10T16:59:57;15.90;39.20
42095;DHT22;27753;55.724;37.612;2023-05-10T17:02:23;15.90;39.60
42095;DHT22;27753;55.724;37.612;2023-05-10T17:04:49;15.80;40.20
42095;DHT22;27753;55.724;37.612;2023-05-10T17:07:17;15.80;39.60
42095;DHT22;27753;55.724;37.612;2023-05-10T17:09:44;15.80;39.70
42095;DHT22;27753;55.724;37.612;2023-05-10T17:12:09;15.70;39.70
42095;DHT22;27753;55.724;37.612;2023-05-10T17:14:38;15.70;39.60
42095;DHT22;27753;55.724;37.612;2023-05-10T17:17:05;15.70;39.40
42095;DHT22;27753;55.724;37.612;2023-05-10T17:19:31;15.70;39.30